Time;durP1;ratioP1;P1;durP2;ratioP2;P2;SDS_P1;SDS_P2;PMS_P1;PMS_P2;Temp;Humidity;BMP_temperature;BMP_pressure;BME280_temperature;BME280_humidity;BME280_pressure;Samples;Min_cycle;Max_cycle;Signal;HPM_P1;HPM_P2
2022/11/26 00:00:21;;;;;;;13.50;9.07;;;5.70;99.90;;;;;;4994677;28;20041;-78
2022/11/26 00:02:47;;;;;;;11.65;8.52;;;5.70;99.90;;;;;;4982465;28;20035;-79
2022/11/26 00:05:15;;;;;;;12.68;8.07;;;5.70;99.90;;;;;;4998486;28;20926;-79
2022/11/26 00:07:45;;;;;;;13.80;8.75;;;5.70;99.90;;;;;;4993583;28;20129;-79
2022/11/26 00:10:17;;;;;;;15.25;8.77;;;5.70;99.90;;;;;;4983835;28;20030;-78
2022/11/26 00:12:44;;;;;;;12.50;8.25;;;5.70;99.90;;;;;;4990654;28;20026;-77
2022/11/26 00:15:22;;;;;;;17.80;8.90;;;5.70;99.90;;;;;;4991054;28;20034;-78
2022/11/26 00:17:49;;;;;;;13.65;7.78;;;5.70;99.90;;;;;;5007197;28;20061;-79
2022/11/26 00:20:16;;;;;;;12.73;8.55;;;5.70;99.90;;;;;;4990279;28;20133;-78
2022/11/26 00:22:53;;;;;;;13.35;8.32;;;5.70;99.90;;;;;;5001633;28;20038;-78
2022/11/26 00:25:25;;;;;;;12.02;8.38;;;5.70;99.90;;;;;;4995799;28;20030;-79
2022/11/26 00:27:53;;;;;;;17.40;9.18;;;5.70;99.90;;;;;;4991973;28;20041;-78
2022/11/26 00:30:26;;;;;;;16.73;8.88;;;5.80;99.90;;;;;;4979421;28;20109;-78
2022/11/26 00:32:54;;;;;;;12.50;8.18;;;5.80;99.90;;;;;;4991991;28;20030;-78
2022/11/26 00:35:21;;;;;;;13.45;8.52;;;5.70;99.90;;;;;;4988064;28;20027;-78
2022/11/26 00:37:50;;;;;;;15.52;9.57;;;5.70;99.90;;;;;;5002389;28;20018;-78
2022/11/26 00:40:25;;;;;;;17.45;9.80;;;5.80;99.90;;;;;;4991664;28;20126;-77
2022/11/26 00:42:52;;;;;;;15.13;9.20;;;5.80;99.90;;;;;;4987842;28;20384;-77
2022/11/26 00:45:27;;;;;;;14.57;9.18;;;5.80;99.90;;;;;;4988259;28;20038;-79
2022/11/26 00:48:00;;;;;;;13.93;8.82;;;5.80;99.90;;;;;;4989432;28;20080;-79
2022/11/26 00:50:26;;;;;;;17.13;9.95;;;5.80;99.90;;;;;;4998906;28;20035;-79
2022/11/26 00:52:55;;;;;;;16.30;8.65;;;5.80;99.90;;;;;;5006726;28;20157;-79
2022/11/26 00:55:30;;;;;;;14.60;9.00;;;5.80;99.90;;;;;;4983022;28;20034;-79
2022/11/26 00:57:56;;;;;;;13.02;8.18;;;5.80;99.90;;;;;;4992694;28;20057;-78
2022/11/26 01:00:25;;;;;;;17.92;8.68;;;5.80;99.90;;;;;;4996501;28;20061;-78
2022/11/26 01:02:51;;;;;;;12.82;7.85;;;5.90;99.90;;;;;;4998244;28;20064;-79
2022/11/26 01:05:17;;;;;;;15.02;8.27;;;5.80;99.90;;;;;;4984034;28;20137;-79
2022/11/26 01:07:45;;;;;;;14.32;9.10;;;5.80;99.90;;;;;;5001167;28;20030;-77
2022/11/26 01:10:23;;;;;;;13.45;8.52;;;5.80;99.90;;;;;;5000261;28;20038;-77
2022/11/26 01:12:50;;;;;;;15.57;8.95;;;5.80;99.90;;;;;;4956100;28;20110;-79
2022/11/26 01:15:18;;;;;;;12.57;8.18;;;5.80;99.90;;;;;;4993156;28;20593;-79
2022/11/26 01:17:43;;;;;;;11.45;7.95;;;5.80;99.90;;;;;;5009971;28;20033;-79
2022/11/26 01:20:20;;;;;;;17.08;8.68;;;5.70;99.90;;;;;;4988407;28;20046;-79
2022/11/26 01:22:47;;;;;;;11.07;7.22;;;5.70;99.90;;;;;;4999026;28;20028;-79
2022/11/26 01:25:13;;;;;;;13.18;7.95;;;5.70;99.90;;;;;;4990438;28;20475;-79
2022/11/26 01:27:39;;;;;;;14.40;7.97;;;5.70;99.90;;;;;;4991224;28;20030;-77
2022/11/26 01:30:31;;;;;;;12.20;7.97;;;5.70;99.90;;;;;;4991921;28;20038;-78
2022/11/26 01:32:59;;;;;;;11.30;7.80;;;5.70;99.90;;;;;;4985814;28;20037;-79
2022/11/26 01:35:27;;;;;;;13.05;7.75;;;5.70;99.90;;;;;;4984298;28;20026;-78
2022/11/26 01:37:54;;;;;;;11.60;7.88;;;5.70;99.90;;;;;;4974780;28;20030;-79
2022/11/26 01:40:32;;;;;;;14.18;8.23;;;5.70;99.90;;;;;;5002574;28;20034;-79
2022/11/26 01:43:16;;;;;;;13.32;7.78;;;5.70;99.90;;;;;;5004052;28;20061;-78
2022/11/26 01:45:41;;;;;;;14.90;7.85;;;5.70;99.90;;;;;;4982892;28;20473;-78
2022/11/26 01:48:26;;;;;;;15.02;8.95;;;5.60;99.90;;;;;;4992358;28;20068;-80
2022/11/26 01:51:00;;;;;;;11.18;7.72;;;5.60;99.90;;;;;;4998162;28;20080;-79
2022/11/26 01:53:51;;;;;;;14.02;7.43;;;5.60;99.90;;;;;;5002601;28;20562;-79
2022/11/26 01:56:17;;;;;;;11.23;7.80;;;5.60;99.90;;;;;;4995695;28;20033;-78
2022/11/26 01:59:21;;;;;;;14.23;7.80;;;5.60;99.90;;;;;;5006624;28;20653;-79
2022/11/26 02:01:48;;;;;;;15.18;7.60;;;5.70;99.90;;;;;;4986433;28;20042;-78
2022/11/26 02:04:26;;;;;;;12.52;7.93;;;5.60;99.90;;;;;;4970431;28;20126;-80
2022/11/26 02:06:54;;;;;;;10.63;7.22;;;5.60;99.90;;;;;;4987004;28;20665;-79
2022/11/26 02:09:20;;;;;;;10.68;7.15;;;5.60;99.90;;;;;;4976157;28;20042;-77
2022/11/26 02:11:46;;;;;;;15.13;8.13;;;5.60;99.90;;;;;;5004533;28;20641;-79
2022/11/26 02:14:20;;;;;;;12.30;8.30;;;5.60;99.90;;;;;;4993330;28;20124;-79
2022/11/26 02:17:22;;;;;;;14.75;8.25;;;5.60;99.90;;;;;;4977901;28;20133;-79
2022/11/26 02:20:22;;;;;;;12.30;7.40;;;5.70;99.90;;;;;;4994528;28;20069;-79
2022/11/26 02:22:48;;;;;;;12.43;8.13;;;5.70;99.90;;;;;;4985347;28;20026;-78
2022/11/26 02:25:27;;;;;;;12.38;7.47;;;5.70;99.90;;;;;;5009612;28;20030;-77
2022/11/26 02:28:17;;;;;;;12.23;7.35;;;5.70;99.90;;;;;;4990475;28;20026;-79
2022/11/26 02:31:01;;;;;;;13.30;7.63;;;5.70;99.90;;;;;;5005293;28;20407;-77
2022/11/26 02:33:35;;;;;;;10.98;7.88;;;5.70;99.90;;;;;;4970984;28;20034;-79
2022/11/26 02:36:09;;;;;;;12.25;7.70;;;5.70;99.90;;;;;;4985314;28;20117;-78
2022/11/26 02:38:38;;;;;;;11.82;7.00;;;5.70;99.90;;;;;;5003933;28;20038;-78
2022/11/26 02:41:04;;;;;;;11.88;7.45;;;5.70;99.90;;;;;;4997360;28;20483;-77
2022/11/26 02:43:31;;;;;;;10.52;6.55;;;5.70;99.90;;;;;;4990646;28;20045;-78
2022/11/26 02:46:01;;;;;;;15.13;6.75;;;5.70;99.90;;;;;;4996552;28;20030;-78
2022/11/26 02:48:33;;;;;;;10.80;6.90;;;5.70;99.90;;;;;;4975992;28;20038;-77
2022/11/26 02:51:12;;;;;;;11.80;6.72;;;5.70;99.90;;;;;;4978920;28;20523;-78
2022/11/26 02:53:39;;;;;;;12.10;7.25;;;5.70;99.90;;;;;;4995560;28;20078;-78
2022/11/26 02:56:09;;;;;;;14.10;10.30;;;5.70;99.90;;;;;;4980796;28;20054;-78
2022/11/26 02:58:36;;;;;;;22.52;15.07;;;5.70;99.90;;;;;;4993481;28;20088;-78
2022/11/26 03:01:08;;;;;;;32.95;22.75;;;5.70;99.90;;;;;;4982910;28;20091;-78
2022/11/26 03:03:40;;;;;;;36.03;25.30;;;5.70;99.90;;;;;;4982024;28;20086;-78
2022/11/26 03:06:09;;;;;;;52.50;34.50;;;5.70;99.90;;;;;;4987726;28;20062;-77
2022/11/26 03:08:36;;;;;;;25.33;17.35;;;5.70;99.90;;;;;;4973402;28;20038;-78
2022/11/26 03:11:02;;;;;;;31.35;19.73;;;5.70;99.90;;;;;;4991465;28;20068;-78
2022/11/26 03:13:28;;;;;;;25.27;17.63;;;5.80;99.90;;;;;;4981422;28;20057;-79
2022/11/26 03:15:54;;;;;;;25.30;18.42;;;5.80;99.90;;;;;;4979335;28;20038;-78
2022/11/26 03:18:20;;;;;;;19.17;13.35;;;5.80;99.90;;;;;;4985200;28;20031;-79
2022/11/26 03:20:46;;;;;;;17.40;11.82;;;5.80;99.90;;;;;;4988692;28;20108;-78
2022/11/26 03:23:11;;;;;;;18.98;12.15;;;5.80;99.90;;;;;;4976798;28;20041;-79
2022/11/26 03:25:37;;;;;;;17.05;12.00;;;5.80;99.90;;;;;;4995949;28;20082;-78
2022/11/26 03:28:03;;;;;;;15.68;10.63;;;5.80;99.90;;;;;;5009561;28;20449;-79
2022/11/26 03:30:29;;;;;;;12.55;8.18;;;5.80;99.90;;;;;;4983709;28;20045;-79
2022/11/26 03:32:55;;;;;;;10.00;7.55;;;5.90;99.90;;;;;;5006141;28;20129;-78
2022/11/26 03:35:21;;;;;;;20.58;8.32;;;5.90;99.90;;;;;;4990725;28;20034;-78
2022/11/26 03:37:46;;;;;;;11.75;7.05;;;5.90;99.90;;;;;;4989095;28;20042;-79
2022/11/26 03:40:15;;;;;;;44.53;7.97;;;6.00;99.90;;;;;;4955936;28;20043;-79
2022/11/26 03:42:41;;;;;;;15.45;6.82;;;5.90;99.90;;;;;;4990874;28;20054;-78
2022/11/26 03:45:07;;;;;;;13.57;6.90;;;5.90;99.90;;;;;;4984776;28;20034;-78
2022/11/26 03:47:33;;;;;;;9.65;6.95;;;5.80;99.90;;;;;;4988713;28;20548;-78
2022/11/26 03:49:59;;;;;;;11.57;7.85;;;5.80;99.90;;;;;;4981300;28;20038;-78
2022/11/26 03:52:25;;;;;;;11.20;8.05;;;5.80;99.90;;;;;;4957626;28;20038;-79
2022/11/26 03:54:51;;;;;;;11.90;8.02;;;5.80;99.90;;;;;;4992694;28;20066;-79
2022/11/26 03:57:17;;;;;;;13.35;6.65;;;5.80;99.90;;;;;;4976604;28;20057;-79
2022/11/26 03:59:42;;;;;;;10.63;6.70;;;5.80;99.90;;;;;;4998631;28;20018;-79
2022/11/26 04:02:08;;;;;;;10.73;7.53;;;5.80;99.90;;;;;;4991156;28;20038;-79
2022/11/26 04:04:34;;;;;;;11.68;7.40;;;5.80;99.90;;;;;;5000766;28;20069;-79
2022/11/26 04:07:00;;;;;;;19.38;9.77;;;5.80;99.90;;;;;;4981942;28;20038;-79
2022/11/26 04:09:26;;;;;;;15.52;9.05;;;5.80;99.90;;;;;;4992376;28;20145;-78
2022/11/26 04:11:51;;;;;;;14.85;8.10;;;5.80;99.90;;;;;;4984505;28;20518;-79
2022/11/26 04:14:17;;;;;;;13.77;8.15;;;5.80;99.90;;;;;;4989573;28;20403;-79
2022/11/26 04:16:43;;;;;;;8.10;6.40;;;5.80;99.90;;;;;;5000707;28;20053;-78
2022/11/26 04:19:09;;;;;;;13.23;6.90;;;5.80;99.90;;;;;;4977599;28;20034;-78
2022/11/26 04:21:34;;;;;;;11.10;7.53;;;5.80;99.90;;;;;;5002191;28;20038;-79
2022/11/26 04:24:00;;;;;;;60.70;8.45;;;5.80;99.90;;;;;;5007509;28;20030;-79
2022/11/26 04:26:26;;;;;;;10.32;7.10;;;5.80;99.90;;;;;;4984380;28;20042;-79
2022/11/26 04:28:52;;;;;;;13.68;6.50;;;5.80;99.90;;;;;;5004977;28;20026;-79
2022/11/26 04:31:17;;;;;;;24.88;7.60;;;5.80;99.90;;;;;;4956824;28;20038;-78
2022/11/26 04:33:43;;;;;;;9.18;6.47;;;5.80;99.90;;;;;;4988668;28;20104;-79
2022/11/26 04:36:10;;;;;;;8.95;6.63;;;5.80;99.90;;;;;;5003853;28;20527;-78
2022/11/26 04:38:36;;;;;;;10.23;6.38;;;5.70;99.90;;;;;;5011809;28;20033;-79
2022/11/26 04:41:02;;;;;;;11.15;7.07;;;5.70;99.90;;;;;;4961314;28;20026;-79
2022/11/26 04:43:29;;;;;;;8.55;6.95;;;5.80;99.90;;;;;;5002655;28;20030;-78
2022/11/26 04:45:55;;;;;;;9.85;7.13;;;5.70;99.90;;;;;;4996214;28;20168;-79
2022/11/26 04:48:21;;;;;;;9.25;6.97;;;5.70;99.90;;;;;;5003885;28;20117;-79
2022/11/26 04:50:48;;;;;;;10.38;6.72;;;5.70;99.90;;;;;;4996909;28;20023;-79
2022/11/26 04:53:13;;;;;;;10.88;7.25;;;5.70;99.90;;;;;;5004964;28;20026;-79
2022/11/26 04:55:39;;;;;;;9.70;6.70;;;5.70;99.90;;;;;;5008069;28;20387;-79
2022/11/26 04:58:05;;;;;;;8.77;6.70;;;5.70;99.90;;;;;;4970492;28;20034;-79
2022/11/26 05:00:31;;;;;;;11.68;6.50;;;5.70;99.90;;;;;;5001211;28;20031;-79
2022/11/26 05:02:56;;;;;;;51.08;7.97;;;5.70;99.90;;;;;;5000771;28;20111;-79
2022/11/26 05:05:22;;;;;;;9.65;7.32;;;5.70;99.90;;;;;;4993180;28;20376;-79
2022/11/26 05:07:48;;;;;;;9.70;7.40;;;5.70;99.90;;;;;;4991235;28;20058;-79
2022/11/26 05:10:14;;;;;;;9.68;6.50;;;5.70;99.90;;;;;;4993272;28;20081;-79
2022/11/26 05:12:40;;;;;;;12.68;6.00;;;5.70;99.90;;;;;;4995108;28;20027;-79
2022/11/26 05:15:06;;;;;;;12.90;5.90;;;5.70;99.90;;;;;;4992913;28;20113;-79
2022/11/26 05:17:32;;;;;;;9.73;6.75;;;5.70;99.90;;;;;;4980133;28;20034;-79
2022/11/26 05:19:58;;;;;;;11.70;7.32;;;5.70;99.90;;;;;;5008729;28;20094;-79
2022/11/26 05:22:24;;;;;;;13.05;7.35;;;5.70;99.90;;;;;;4994669;28;20057;-79
2022/11/26 05:24:49;;;;;;;11.48;8.20;;;5.70;99.90;;;;;;5011441;28;20033;-79
2022/11/26 05:27:15;;;;;;;13.98;8.10;;;5.70;99.90;;;;;;4994806;28;20609;-79
2022/11/26 05:29:41;;;;;;;11.68;7.70;;;5.60;99.90;;;;;;4991935;28;20176;-79
2022/11/26 05:32:07;;;;;;;13.23;7.97;;;5.60;99.90;;;;;;4982913;28;20038;-79
2022/11/26 05:34:32;;;;;;;15.48;9.07;;;5.60;99.90;;;;;;4985208;28;20045;-78
2022/11/26 05:36:58;;;;;;;15.10;8.68;;;5.60;99.90;;;;;;4998090;28;20073;-78
2022/11/26 05:39:24;;;;;;;20.48;9.63;;;5.60;99.90;;;;;;4993246;28;20125;-78
2022/11/26 05:41:50;;;;;;;14.10;9.10;;;5.70;99.90;;;;;;5009755;28;20022;-76
2022/11/26 05:44:16;;;;;;;15.27;9.20;;;5.70;99.90;;;;;;4980390;28;20630;-77
2022/11/26 05:46:42;;;;;;;14.38;9.48;;;5.70;99.90;;;;;;4997255;28;20154;-77
2022/11/26 05:49:08;;;;;;;12.15;8.57;;;5.70;99.90;;;;;;4995373;28;20034;-79
2022/11/26 05:51:34;;;;;;;13.73;8.80;;;5.60;99.90;;;;;;4978790;28;20038;-77
2022/11/26 05:54:00;;;;;;;13.27;8.93;;;5.70;99.90;;;;;;5009863;28;20034;-76
2022/11/26 05:56:26;;;;;;;15.02;8.70;;;5.70;99.90;;;;;;4977196;28;20673;-77
2022/11/26 05:58:51;;;;;;;18.75;9.07;;;5.70;99.90;;;;;;5002073;28;20030;-79
2022/11/26 06:01:17;;;;;;;18.73;9.35;;;5.70;99.90;;;;;;5009737;28;20049;-78
2022/11/26 06:03:43;;;;;;;26.63;8.63;;;5.70;99.90;;;;;;5006999;28;20081;-79
2022/11/26 06:06:09;;;;;;;31.25;8.65;;;5.80;99.90;;;;;;5002146;28;20034;-77
2022/11/26 06:08:35;;;;;;;25.13;8.65;;;5.70;99.90;;;;;;5010060;28;20041;-78
2022/11/26 06:11:01;;;;;;;20.75;7.30;;;5.70;99.90;;;;;;5006831;28;20058;-78
2022/11/26 06:13:27;;;;;;;11.88;7.60;;;5.70;99.90;;;;;;5011092;28;20497;-79
2022/11/26 06:15:52;;;;;;;48.88;8.38;;;5.70;99.90;;;;;;4973417;28;20130;-79
2022/11/26 06:18:18;;;;;;;20.73;6.63;;;5.80;99.90;;;;;;4999259;28;20417;-78
2022/11/26 06:20:44;;;;;;;47.22;9.35;;;5.80;99.90;;;;;;4992303;28;20077;-77
2022/11/26 06:23:10;;;;;;;8.68;6.90;;;5.80;99.90;;;;;;5011739;28;20128;-77
2022/11/26 06:25:39;;;;;;;12.48;8.25;;;5.80;99.90;;;;;;4995709;28;20053;-79
2022/11/26 06:28:04;;;;;;;15.90;9.65;;;5.70;99.90;;;;;;4998029;28;20045;-79
2022/11/26 06:30:30;;;;;;;16.65;10.88;;;5.80;99.90;;;;;;4987352;28;20023;-79
2022/11/26 06:32:56;;;;;;;15.85;8.65;;;5.80;99.90;;;;;;4976060;28;20592;-80
2022/11/26 06:35:21;;;;;;;13.20;8.50;;;5.80;99.90;;;;;;4991386;28;20062;-79
2022/11/26 06:37:47;;;;;;;16.52;9.52;;;5.70;99.90;;;;;;5002976;28;20088;-79
2022/11/26 06:40:18;;;;;;;14.10;9.38;;;5.70;99.90;;;;;;4997828;28;20030;-79
2022/11/26 06:42:49;;;;;;;14.93;9.85;;;5.70;99.90;;;;;;5001007;28;20653;-79
2022/11/26 06:45:16;;;;;;;16.50;10.02;;;5.70;99.90;;;;;;4999862;28;20073;-80
2022/11/26 06:47:41;;;;;;;15.65;9.80;;;5.70;99.90;;;;;;4987524;28;20034;-78
2022/11/26 06:50:08;;;;;;;16.65;9.40;;;5.70;99.90;;;;;;5001334;28;20032;-78
2022/11/26 06:52:33;;;;;;;16.45;9.18;;;5.70;99.90;;;;;;4992029;28;20211;-78
2022/11/26 06:54:59;;;;;;;13.98;9.38;;;5.60;99.90;;;;;;4982116;28;20031;-78
2022/11/26 06:57:25;;;;;;;13.95;8.98;;;5.70;99.90;;;;;;5006938;28;20537;-79
2022/11/26 06:59:51;;;;;;;14.30;9.40;;;5.70;99.90;;;;;;4993734;28;20068;-78
2022/11/26 07:02:17;;;;;;;19.30;9.85;;;5.70;99.90;;;;;;4994392;28;20109;-79
2022/11/26 07:04:42;;;;;;;14.40;8.95;;;5.70;99.90;;;;;;4989039;28;20046;-77
2022/11/26 07:07:08;;;;;;;13.52;9.07;;;5.70;99.90;;;;;;4994084;28;20030;-78
2022/11/26 07:09:34;;;;;;;12.07;7.97;;;5.70;99.90;;;;;;4941109;28;20125;-77
2022/11/26 07:11:59;;;;;;;14.77;8.75;;;5.70;99.90;;;;;;4994862;28;20067;-78
2022/11/26 07:14:25;;;;;;;14.15;9.25;;;5.70;99.90;;;;;;4990510;28;20068;-77
2022/11/26 07:16:51;;;;;;;14.02;8.27;;;5.70;99.90;;;;;;4989781;28;20039;-77
2022/11/26 07:19:17;;;;;;;41.22;8.68;;;5.70;99.90;;;;;;4995891;28;20041;-78
2022/11/26 07:21:43;;;;;;;46.67;8.90;;;5.80;99.90;;;;;;4998194;28;20541;-78
2022/11/26 07:24:08;;;;;;;9.35;7.05;;;5.80;99.90;;;;;;4993885;28;20046;-77
2022/11/26 07:26:34;;;;;;;13.20;7.97;;;5.80;99.90;;;;;;4988801;28;20034;-79
2022/11/26 07:29:00;;;;;;;15.90;8.73;;;5.80;99.90;;;;;;4979676;28;20041;-79
2022/11/26 07:31:26;;;;;;;15.52;9.48;;;5.80;99.90;;;;;;4984082;28;20030;-79
2022/11/26 07:33:52;;;;;;;22.33;12.85;;;5.80;99.90;;;;;;4990506;28;20037;-78
2022/11/26 07:36:25;;;;;;;22.05;12.98;;;5.80;99.90;;;;;;4976899;28;20035;-78
2022/11/26 07:38:53;;;;;;;21.63;11.95;;;5.80;99.90;;;;;;4974992;28;20041;-79
2022/11/26 07:41:19;;;;;;;20.15;12.95;;;5.80;99.90;;;;;;4984755;28;20030;-79
2022/11/26 07:43:45;;;;;;;25.70;15.18;;;5.90;99.90;;;;;;4995272;28;20034;-79
2022/11/26 07:46:15;;;;;;;25.27;15.88;;;6.00;99.90;;;;;;4994107;28;20045;-79
2022/11/26 07:48:41;;;;;;;28.00;14.43;;;6.00;99.90;;;;;;4996587;28;20048;-79
2022/11/26 07:51:14;;;;;;;20.08;12.88;;;6.00;99.90;;;;;;4994675;28;20042;-80
2022/11/26 07:53:40;;;;;;;21.38;12.57;;;6.00;99.90;;;;;;4987236;28;20027;-79
2022/11/26 07:56:06;;;;;;;20.48;12.50;;;6.00;99.90;;;;;;4970777;28;20037;-79
2022/11/26 07:58:32;;;;;;;25.10;13.38;;;6.10;99.90;;;;;;4973497;28;20034;-79
2022/11/26 08:01:13;;;;;;;22.95;13.32;;;6.10;99.90;;;;;;4990321;28;20029;-79
2022/11/26 08:03:45;;;;;;;20.20;12.70;;;6.10;99.90;;;;;;4971205;28;20034;-78
2022/11/26 08:06:13;;;;;;;20.38;13.18;;;6.00;99.90;;;;;;4996534;28;20118;-78
2022/11/26 08:08:39;;;;;;;36.17;21.83;;;6.00;99.90;;;;;;4974226;28;20038;-78
2022/11/26 08:11:15;;;;;;;53.10;28.73;;;6.00;99.90;;;;;;4961344;28;20254;-79
2022/11/26 08:13:41;;;;;;;50.60;23.98;;;6.00;99.90;;;;;;4979997;28;20144;-79
2022/11/26 08:16:07;;;;;;;38.03;17.95;;;6.00;99.90;;;;;;4994687;28;20050;-79
2022/11/26 08:18:33;;;;;;;21.27;13.73;;;6.00;99.90;;;;;;4970523;28;20022;-79
2022/11/26 08:20:59;;;;;;;36.75;18.30;;;6.00;99.90;;;;;;4993242;28;20043;-79
2022/11/26 08:23:27;;;;;;;47.63;22.10;;;6.00;99.90;;;;;;4996863;28;20076;-78
2022/11/26 08:25:53;;;;;;;37.58;22.40;;;6.00;99.90;;;;;;4962259;28;20102;-79
2022/11/26 08:28:19;;;;;;;40.63;22.33;;;6.10;99.90;;;;;;4980793;28;20469;-79
2022/11/26 08:30:45;;;;;;;33.00;19.27;;;6.10;99.90;;;;;;4993235;28;20576;-79
2022/11/26 08:33:11;;;;;;;31.35;19.95;;;6.20;99.90;;;;;;4984910;28;20067;-79
2022/11/26 08:35:37;;;;;;;40.10;21.92;;;6.20;99.90;;;;;;4971186;28;20350;-78
2022/11/26 08:38:03;;;;;;;30.83;18.35;;;6.30;99.90;;;;;;4973331;28;20046;-78
2022/11/26 08:40:30;;;;;;;27.25;16.05;;;6.30;99.90;;;;;;4978120;28;20050;-79
2022/11/26 08:42:56;;;;;;;22.33;13.55;;;6.40;99.90;;;;;;4969098;28;20085;-79
2022/11/26 08:45:22;;;;;;;19.52;10.68;;;6.50;99.90;;;;;;4982265;28;20498;-79
2022/11/26 08:47:48;;;;;;;19.95;12.15;;;6.50;99.90;;;;;;4978077;28;20061;-79
2022/11/26 08:50:14;;;;;;;19.55;11.82;;;6.60;99.90;;;;;;4971110;28;20643;-79
2022/11/26 08:52:43;;;;;;;18.38;10.52;;;6.60;99.90;;;;;;4971027;28;20081;-79
2022/11/26 08:55:09;;;;;;;16.70;10.40;;;6.60;99.90;;;;;;4960569;28;20510;-79
2022/11/26 08:57:35;;;;;;;15.73;9.52;;;6.70;99.90;;;;;;4990892;28;20019;-79
2022/11/26 09:00:00;;;;;;;16.65;9.75;;;6.70;99.90;;;;;;4991820;28;20364;-79
2022/11/26 09:02:26;;;;;;;16.80;9.35;;;6.80;99.90;;;;;;4992038;28;20027;-79
2022/11/26 09:04:52;;;;;;;13.25;8.20;;;6.80;99.90;;;;;;4971114;28;20039;-79
2022/11/26 09:07:21;;;;;;;13.43;9.10;;;6.80;99.90;;;;;;4959540;28;20038;-80
2022/11/26 09:09:47;;;;;;;15.88;9.73;;;6.90;99.90;;;;;;4949851;28;20035;-79
2022/11/26 09:12:13;;;;;;;13.38;8.75;;;7.00;99.90;;;;;;4985216;28;20121;-79
2022/11/26 09:14:39;;;;;;;17.00;8.80;;;7.00;99.90;;;;;;4955248;28;20042;-79
2022/11/26 09:17:06;;;;;;;12.93;7.82;;;7.00;99.90;;;;;;4964508;28;20042;-79
2022/11/26 09:19:31;;;;;;;13.13;8.27;;;7.10;99.90;;;;;;4955583;28;20057;-80
2022/11/26 09:21:58;;;;;;;14.85;8.70;;;7.10;99.90;;;;;;4969346;28;20031;-79
2022/11/26 09:24:24;;;;;;;15.18;9.15;;;7.20;99.90;;;;;;4972654;28;20064;-79
2022/11/26 09:26:51;;;;;;;13.48;9.00;;;7.20;99.90;;;;;;4974830;28;20035;-80
2022/11/26 09:29:19;;;;;;;13.50;8.63;;;7.20;99.90;;;;;;4959540;28;20531;-79
2022/11/26 09:31:45;;;;;;;13.40;9.15;;;7.20;99.90;;;;;;4993269;28;20034;-78
2022/11/26 09:34:12;;;;;;;13.70;8.10;;;7.20;99.90;;;;;;4952437;28;20066;-80
2022/11/26 09:36:38;;;;;;;10.85;7.28;;;7.20;99.90;;;;;;4958232;28;20030;-80
2022/11/26 09:39:04;;;;;;;12.63;7.88;;;7.20;99.90;;;;;;4989064;28;20037;-81
2022/11/26 09:41:39;;;;;;;11.80;7.38;;;7.20;99.90;;;;;;4991243;28;20113;-80
2022/11/26 09:44:37;;;;;;;9.45;6.93;;;7.30;99.90;;;;;;4987577;28;20602;-81
2022/11/26 09:47:16;;;;;;;9.52;5.93;;;7.20;99.90;;;;;;4984606;28;20483;-80
2022/11/26 09:50:05;;;;;;;9.93;6.80;;;7.30;99.90;;;;;;4985814;28;20097;-79
2022/11/26 09:52:47;;;;;;;8.55;6.72;;;7.20;99.90;;;;;;4989854;28;20054;-79
2022/11/26 09:55:23;;;;;;;12.20;6.65;;;7.20;99.90;;;;;;4977289;28;20042;-79
2022/11/26 09:58:31;;;;;;;10.85;6.40;;;7.20;99.90;;;;;;4989162;28;20026;-79
2022/11/26 10:00:59;;;;;;;13.40;6.07;;;7.20;99.90;;;;;;4959317;28;20049;-79
2022/11/26 10:03:32;;;;;;;10.13;6.20;;;7.20;99.90;;;;;;4990138;28;20586;-79
2022/11/26 10:06:28;;;;;;;9.20;6.05;;;7.20;99.90;;;;;;4985376;28;20117;-78
2022/11/26 10:09:18;;;;;;;9.90;5.90;;;7.10;99.90;;;;;;4982262;28;20066;-79
2022/11/26 10:11:59;;;;;;;10.60;5.85;;;7.10;99.90;;;;;;4970266;28;20493;-79
2022/11/26 10:14:46;;;;;;;6.88;5.40;;;7.00;99.90;;;;;;4991059;28;20034;-80
2022/11/26 10:17:54;;;;;;;7.60;5.60;;;7.00;99.90;;;;;;4987416;28;20042;-79
2022/11/26 10:20:38;;;;;;;7.85;5.78;;;7.00;99.90;;;;;;4969485;28;20037;-79
2022/11/26 10:23:10;;;;;;;9.18;5.78;;;7.00;99.90;;;;;;4987179;28;20026;-79
2022/11/26 10:25:45;;;;;;;7.97;5.15;;;7.00;99.90;;;;;;4969945;28;20030;-78
2022/11/26 10:28:28;;;;;;;;;;;6.90;99.90;;;;;;4983104;28;20113;-79
2022/11/26 10:31:00;;;;;;;7.63;4.70;;;6.90;99.90;;;;;;4987307;28;20448;-79
2022/11/26 10:33:32;;;;;;;10.00;5.28;;;6.90;99.90;;;;;;4967513;28;20038;-80
2022/11/26 10:35:58;;;;;;;7.18;5.20;;;6.90;99.90;;;;;;4985154;28;20035;-79
2022/11/26 10:38:24;;;;;;;9.35;5.47;;;6.80;99.90;;;;;;4983149;28;20027;-79
2022/11/26 10:40:49;;;;;;;9.57;5.72;;;6.80;99.90;;;;;;4981286;28;20041;-79
2022/11/26 10:43:20;;;;;;;9.57;5.40;;;6.80;99.90;;;;;;4986562;28;20030;-79
2022/11/26 10:45:49;;;;;;;8.00;5.68;;;6.70;99.90;;;;;;4995501;28;20026;-79
2022/11/26 10:48:20;;;;;;;8.25;5.25;;;6.70;99.90;;;;;;4985372;28;20168;-78
2022/11/26 10:51:00;;;;;;;7.03;5.15;;;6.80;99.90;;;;;;4987419;28;20026;-78
2022/11/26 10:53:28;;;;;;;9.05;5.45;;;6.70;99.90;;;;;;4990278;28;20133;-79
2022/11/26 10:56:00;;;;;;;9.48;5.82;;;6.70;99.90;;;;;;4984886;28;20075;-79
2022/11/26 10:58:30;;;;;;;7.70;5.65;;;6.70;99.90;;;;;;4994195;28;20034;-79
2022/11/26 11:01:02;;;;;;;9.05;5.93;;;6.70;99.90;;;;;;4988167;28;20039;-80
2022/11/26 11:03:37;;;;;;;9.10;6.35;;;6.70;99.90;;;;;;4976883;28;20028;-80
2022/11/26 11:06:18;;;;;;;9.82;5.38;;;6.70;99.90;;;;;;4988909;28;20057;-79
2022/11/26 11:08:45;;;;;;;8.05;5.82;;;6.70;99.90;;;;;;4985982;28;20022;-79
2022/11/26 11:11:22;;;;;;;11.20;6.38;;;6.70;99.90;;;;;;4973923;28;20022;-79
2022/11/26 11:13:49;;;;;;;10.35;5.50;;;6.70;99.90;;;;;;4981116;28;20042;-79
2022/11/26 11:16:41;;;;;;;9.90;6.88;;;6.70;99.90;;;;;;4960069;28;20022;-80
2022/11/26 11:19:21;;;;;;;11.50;6.13;;;6.70;99.90;;;;;;4967521;28;20062;-80
2022/11/26 11:21:47;;;;;;;9.18;5.72;;;6.70;99.90;;;;;;4988380;28;20035;-80
2022/11/26 11:24:17;;;;;;;11.15;6.85;;;6.80;99.90;;;;;;4986665;28;20030;-80
2022/11/26 11:26:52;;;;;;;9.43;6.22;;;6.90;99.90;;;;;;4982449;28;20225;-80
2022/11/26 11:29:35;;;;;;;10.07;7.10;;;6.90;99.90;;;;;;5001655;28;20546;-79
2022/11/26 11:32:04;;;;;;;13.20;7.05;;;7.00;99.90;;;;;;4983293;28;20037;-80
2022/11/26 11:34:38;;;;;;;13.93;6.95;;;7.10;99.90;;;;;;4955733;28;20709;-79
2022/11/26 11:37:12;;;;;;;9.88;6.65;;;7.10;99.90;;;;;;4989600;28;20117;-79
2022/11/26 11:39:38;;;;;;;12.02;6.60;;;7.20;99.90;;;;;;4991772;28;20472;-80
2022/11/26 11:42:18;;;;;;;7.82;5.70;;;7.20;99.90;;;;;;4990966;28;20110;-80
2022/11/26 11:44:46;;;;;;;12.30;6.30;;;7.30;99.90;;;;;;4992921;28;20033;-80
2022/11/26 11:47:30;;;;;;;9.57;5.63;;;7.30;99.90;;;;;;4973196;28;20593;-80
2022/11/26 11:50:08;;;;;;;11.50;6.13;;;7.40;99.90;;;;;;4995082;28;20069;-80
2022/11/26 11:52:54;;;;;;;10.65;5.78;;;7.40;99.90;;;;;;4999943;28;20034;-80
2022/11/26 11:55:46;;;;;;;11.23;5.80;;;7.50;99.90;;;;;;4979862;28;20043;-80
2022/11/26 11:58:29;;;;;;;9.40;5.88;;;7.50;99.90;;;;;;4959100;28;20371;-80
2022/11/26 12:01:37;;;;;;;7.53;5.30;;;7.50;99.90;;;;;;4983568;28;20027;-80
2022/11/26 12:04:43;;;;;;;8.10;5.30;;;7.50;99.90;;;;;;4993842;28;20034;-80
2022/11/26 12:07:29;;;;;;;8.85;5.80;;;7.50;99.90;;;;;;4936322;28;20050;-80
2022/11/26 12:10:12;;;;;;;8.05;5.18;;;7.50;99.90;;;;;;4988687;28;20030;-79
2022/11/26 12:12:46;;;;;;;8.35;5.10;;;7.50;99.90;;;;;;4982335;28;20487;-78
2022/11/26 12:15:24;;;;;;;9.75;5.25;;;7.50;99.90;;;;;;4993843;28;20034;-78
2022/11/26 12:18:10;;;;;;;9.63;5.15;;;7.50;99.90;;;;;;4994453;28;20026;-78
2022/11/26 12:20:49;;;;;;;8.90;5.78;;;7.50;99.90;;;;;;5001955;28;20029;-78
2022/11/26 12:23:31;;;;;;;11.10;6.15;;;7.70;99.90;;;;;;4989629;28;20049;-78
2022/11/26 12:26:31;;;;;;;10.90;6.32;;;7.70;99.90;;;;;;4987989;28;20026;-80
2022/11/26 12:29:05;;;;;;;7.93;5.72;;;7.80;99.90;;;;;;5001731;28;20381;-79
2022/11/26 12:31:47;;;;;;;9.05;5.20;;;7.70;99.90;;;;;;4993809;28;20033;-79
2022/11/26 12:34:27;;;;;;;9.68;5.40;;;7.80;99.90;;;;;;4994561;28;20034;-79
2022/11/26 12:37:04;;;;;;;9.25;5.55;;;7.80;99.90;;;;;;4972530;28;20303;-78
2022/11/26 12:40:03;;;;;;;7.50;5.47;;;7.80;99.90;;;;;;4997471;28;20048;-80
2022/11/26 12:42:56;;;;;;;8.43;5.32;;;7.70;99.90;;;;;;4975218;28;20046;-78
2022/11/26 12:45:40;;;;;;;10.25;5.80;;;7.70;99.90;;;;;;4998569;28;20062;-78
2022/11/26 12:48:32;;;;;;;10.20;5.70;;;7.80;99.90;;;;;;5001769;28;20057;-79
2022/11/26 12:51:11;;;;;;;8.55;5.47;;;7.70;99.90;;;;;;5002664;28;20050;-78
2022/11/26 12:53:44;;;;;;;6.95;5.20;;;7.70;99.90;;;;;;4986832;28;20034;-78
2022/11/26 12:56:26;;;;;;;7.78;4.88;;;7.70;99.90;;;;;;4994565;28;20038;-78
2022/11/26 12:59:04;;;;;;;9.40;5.53;;;7.60;99.90;;;;;;4995070;28;20033;-78
2022/11/26 13:01:31;;;;;;;8.68;5.22;;;7.50;99.90;;;;;;4996854;28;20080;-79
2022/11/26 13:03:59;;;;;;;7.03;5.38;;;7.50;99.90;;;;;;4988090;28;20106;-79
2022/11/26 13:06:52;;;;;;;7.75;5.60;;;7.50;99.90;;;;;;5005769;28;20049;-79